Florence, Wisconsin
Current Conditions -  °F | °C
As of 8:54 PM on Wednesday 26 Nov 2014 (Local Time) from KIMT Reporting Station
Overcast Overcast  
Wind Chill: 11°   Ceiling: 1400
Heat Index: 23°   Visibility: 10mi
Dew Point: 19°   Wind: 13mph
Humidity: 85%   Direction: 320°NW
Pressure: 30.12"   Gusts: NA
Location:  45.92°N, 88.25°W
Report Text: KIMT 270254Z AUTO 32011KT 10SM OVC014 M05/M07 A3012 RMK AO2 SLP225 60000 T10501072 56003
Loading
Personal Weather Stations






























Interactive Weather Map New forecast layout! Learn more

10-Day Weather Forecast

Advertisements
Track Severe Weather on mobile